Time;durP1;ratioP1;P1;durP2;ratioP2;P2;SDS_P1;SDS_P2;PMS_P1;PMS_P2;Temp;Humidity;BMP_temperature;BMP_pressure;BME280_temperature;BME280_humidity;BME280_pressure;Samples;Min_cycle;Max_cycle;Signal;HPM_P1;HPM_P2
2021/06/03 00:00:38;;;;;;;16.45;6.78;;;18.40;99.90;;;;;;5073938;28;20063;-89
2021/06/03 00:03:05;;;;;;;14.02;6.78;;;18.40;99.90;;;;;;5076216;28;20012;-90
2021/06/03 00:05:39;;;;;;;22.17;7.55;;;18.30;99.90;;;;;;5076354;28;20036;-89
2021/06/03 00:08:05;;;;;;;18.13;7.25;;;18.40;99.90;;;;;;5071321;28;20133;-89
2021/06/03 00:10:34;;;;;;;15.10;7.03;;;18.40;99.90;;;;;;5072478;28;20037;-89
2021/06/03 00:13:01;;;;;;;10.65;6.82;;;18.50;99.90;;;;;;5071714;28;20089;-89
2021/06/03 00:15:27;;;;;;;16.13;7.10;;;18.40;99.90;;;;;;5076743;28;20017;-89
2021/06/03 00:17:56;;;;;;;14.02;7.15;;;18.30;99.90;;;;;;5087554;28;20048;-89
2021/06/03 00:20:25;;;;;;;15.93;7.30;;;18.40;99.90;;;;;;5073053;28;20040;-89
2021/06/03 00:22:51;;;;;;;16.20;7.20;;;18.40;99.90;;;;;;5071412;28;20409;-89
2021/06/03 00:25:17;;;;;;;12.50;7.05;;;18.50;99.90;;;;;;5073894;28;20515;-91
2021/06/03 00:27:43;;;;;;;16.05;7.45;;;18.40;99.90;;;;;;5069239;28;20020;-89
2021/06/03 00:30:09;;;;;;;13.43;7.00;;;18.50;99.90;;;;;;5071679;28;20064;-89
2021/06/03 00:32:35;;;;;;;15.98;7.18;;;18.50;99.90;;;;;;5078066;28;20056;-89
2021/06/03 00:35:03;;;;;;;15.60;7.38;;;18.50;99.90;;;;;;5074113;28;20320;-89
2021/06/03 00:37:28;;;;;;;16.55;7.40;;;18.50;99.90;;;;;;5072317;28;20031;-88
2021/06/03 00:39:54;;;;;;;11.48;6.47;;;18.60;99.90;;;;;;5069563;28;20044;-90
2021/06/03 00:42:20;;;;;;;12.07;6.80;;;18.70;99.90;;;;;;5071976;28;20483;-89
2021/06/03 00:44:45;;;;;;;12.68;6.25;;;18.70;99.90;;;;;;5070631;28;20033;-89
2021/06/03 00:47:12;;;;;;;14.02;7.40;;;18.70;99.90;;;;;;5080041;28;20070;-89
2021/06/03 00:49:37;;;;;;;13.27;6.88;;;18.80;99.90;;;;;;5070091;28;20028;-89
2021/06/03 00:52:04;;;;;;;15.73;7.28;;;18.80;99.90;;;;;;5074521;28;20369;-89
2021/06/03 00:54:29;;;;;;;12.52;7.10;;;18.80;99.90;;;;;;5071197;28;20028;-89
2021/06/03 00:56:55;;;;;;;18.02;7.07;;;18.80;99.90;;;;;;5082995;28;20024;-89
2021/06/03 00:59:21;;;;;;;13.77;7.10;;;18.80;99.90;;;;;;5069810;28;20157;-89
2021/06/03 01:01:47;;;;;;;15.45;7.22;;;18.90;99.90;;;;;;5076330;28;20024;-89
2021/06/03 01:04:17;;;;;;;14.23;7.20;;;18.90;99.90;;;;;;5069445;28;20507;-91
2021/06/03 01:06:43;;;;;;;13.85;7.20;;;18.90;99.90;;;;;;5073430;28;20163;-90
2021/06/03 01:09:22;;;;;;;14.20;7.40;;;18.90;99.90;;;;;;5070725;28;20032;-92
2021/06/03 01:12:06;;;;;;;15.93;7.45;;;18.80;99.90;;;;;;5072494;28;20480;-89
2021/06/03 01:14:37;;;;;;;15.55;7.78;;;18.80;99.90;;;;;;5069962;28;20527;-89
2021/06/03 01:17:04;;;;;;;13.05;8.20;;;18.80;99.90;;;;;;5078817;28;20274;-92
2021/06/03 01:19:38;;;;;;;13.95;8.07;;;18.80;99.90;;;;;;5069550;28;20040;-89
2021/06/03 01:22:33;;;;;;;17.92;8.32;;;18.80;99.90;;;;;;5074639;28;20021;-90
2021/06/03 01:25:00;;;;;;;20.00;8.65;;;18.70;99.90;;;;;;5072387;28;20028;-89
2021/06/03 01:27:29;;;;;;;16.13;7.75;;;18.70;99.90;;;;;;5072180;28;20435;-91
2021/06/03 01:30:13;;;;;;;12.00;7.80;;;18.80;99.90;;;;;;5072473;28;20021;-90
2021/06/03 01:32:44;;;;;;;13.48;8.73;;;18.80;99.90;;;;;;5074597;28;20510;-91
2021/06/03 01:35:16;;;;;;;17.38;8.90;;;18.60;99.90;;;;;;5073242;28;20137;-89
2021/06/03 01:37:42;;;;;;;16.75;10.05;;;18.30;99.90;;;;;;5066969;28;20027;-89
2021/06/03 01:40:09;;;;;;;15.88;9.93;;;18.20;99.90;;;;;;5074285;28;20036;-89
2021/06/03 01:42:37;;;;;;;18.17;10.85;;;18.20;99.90;;;;;;5075693;28;20029;-89
2021/06/03 01:45:05;;;;;;;18.45;10.75;;;18.20;99.90;;;;;;5073408;28;20036;-89
2021/06/03 01:47:32;;;;;;;14.57;11.80;;;18.10;99.90;;;;;;5070475;28;20156;-89
2021/06/03 01:49:58;;;;;;;24.17;12.55;;;18.20;99.90;;;;;;5071221;28;20439;-89
2021/06/03 01:52:24;;;;;;;17.95;12.68;;;18.20;99.90;;;;;;5075226;28;20028;-89
2021/06/03 01:54:51;;;;;;;23.13;13.18;;;18.20;99.90;;;;;;5074650;28;20150;-87
2021/06/03 01:57:18;;;;;;;22.77;13.85;;;18.10;99.90;;;;;;5077098;28;20469;-88
2021/06/03 01:59:44;;;;;;;21.40;14.55;;;18.00;99.90;;;;;;5074466;28;20272;-88
2021/06/03 02:02:10;;;;;;;25.52;15.75;;;17.90;99.90;;;;;;5077990;28;20344;-88
2021/06/03 02:04:36;;;;;;;25.10;14.98;;;17.90;99.90;;;;;;5074360;28;20082;-89
2021/06/03 02:07:01;;;;;;;24.58;15.15;;;17.80;99.90;;;;;;5080111;28;20017;-89
2021/06/03 02:09:27;;;;;;;23.30;15.68;;;17.80;99.90;;;;;;5073651;28;20365;-88
2021/06/03 02:11:53;;;;;;;27.38;15.40;;;17.70;99.90;;;;;;5077864;28;20052;-89
2021/06/03 02:14:22;;;;;;;28.30;16.80;;;17.60;99.90;;;;;;5073291;28;20504;-88
2021/06/03 02:16:53;;;;;;;21.45;16.05;;;17.70;99.90;;;;;;5076797;28;20111;-88
2021/06/03 02:19:51;;;;;;;36.30;19.25;;;17.70;99.90;;;;;;5073106;28;20044;-89
2021/06/03 02:22:18;;;;;;;24.48;16.75;;;17.60;99.90;;;;;;5078551;28;20028;-89
2021/06/03 02:24:44;;;;;;;27.20;18.88;;;17.70;99.90;;;;;;5074054;28;20028;-89
2021/06/03 02:27:09;;;;;;;27.63;16.92;;;17.80;99.90;;;;;;5073013;28;20023;-88
2021/06/03 02:29:36;;;;;;;22.70;15.98;;;17.90;99.90;;;;;;5074031;28;20047;-89
2021/06/03 02:32:02;;;;;;;24.88;15.18;;;17.90;99.90;;;;;;5076315;28;20123;-89
2021/06/03 02:34:28;;;;;;;26.95;16.38;;;17.90;99.90;;;;;;5071844;28;20380;-89
2021/06/03 02:36:54;;;;;;;23.58;15.55;;;17.90;99.90;;;;;;5077675;28;20028;-89
2021/06/03 02:39:21;;;;;;;25.00;17.73;;;17.90;99.90;;;;;;5072966;28;20104;-89
2021/06/03 02:41:48;;;;;;;25.30;17.35;;;17.80;99.90;;;;;;5076921;28;20016;-89
2021/06/03 02:44:14;;;;;;;24.90;19.42;;;17.80;99.90;;;;;;5071836;28;20112;-89
2021/06/03 02:46:39;;;;;;;25.85;19.02;;;17.90;99.90;;;;;;5074351;28;20089;-89
2021/06/03 02:49:05;;;;;;;24.15;19.23;;;17.80;99.90;;;;;;5073751;28;20389;-89
2021/06/03 02:51:31;;;;;;;30.30;19.73;;;17.90;99.90;;;;;;5078393;28;20576;-89
2021/06/03 02:53:59;;;;;;;28.17;20.15;;;17.80;99.90;;;;;;5072910;28;20370;-89
2021/06/03 02:56:25;;;;;;;25.75;20.83;;;17.90;99.90;;;;;;5077943;28;20021;-89
2021/06/03 02:58:51;;;;;;;29.35;20.58;;;17.90;99.90;;;;;;5071075;28;20039;-89
2021/06/03 03:01:17;;;;;;;30.23;22.08;;;17.80;99.90;;;;;;5076504;28;20500;-89
2021/06/03 03:03:42;;;;;;;29.85;22.05;;;17.90;99.90;;;;;;5070187;28;20020;-90
2021/06/03 03:06:08;;;;;;;32.55;24.67;;;17.80;99.90;;;;;;5075777;28;20056;-89
2021/06/03 03:08:34;;;;;;;30.27;23.52;;;17.70;99.90;;;;;;5071111;28;20028;-88
2021/06/03 03:11:01;;;;;;;34.45;22.10;;;17.60;99.90;;;;;;5077443;28;20096;-89
2021/06/03 03:13:27;;;;;;;30.88;22.63;;;17.60;99.90;;;;;;5070859;28;20031;-89
2021/06/03 03:15:53;;;;;;;31.23;21.70;;;17.60;99.90;;;;;;5077335;28;20035;-89
2021/06/03 03:18:19;;;;;;;29.17;22.98;;;17.70;99.90;;;;;;5071648;28;20048;-90
2021/06/03 03:20:45;;;;;;;28.13;22.25;;;17.70;99.90;;;;;;5075661;28;20060;-89
2021/06/03 03:23:12;;;;;;;27.55;22.25;;;17.70;99.90;;;;;;5075592;28;20067;-89
2021/06/03 03:25:39;;;;;;;27.88;21.80;;;17.60;99.90;;;;;;5076561;28;20036;-90
2021/06/03 03:28:05;;;;;;;27.05;22.05;;;17.60;99.90;;;;;;5076753;28;20055;-89
2021/06/03 03:30:33;;;;;;;30.92;21.35;;;17.60;99.90;;;;;;5073789;28;20610;-89
2021/06/03 03:32:58;;;;;;;36.28;22.33;;;17.60;99.90;;;;;;5073956;28;20055;-89
2021/06/03 03:35:24;;;;;;;28.77;22.02;;;17.60;99.90;;;;;;5073276;28;20059;-90
2021/06/03 03:37:51;;;;;;;26.73;21.42;;;17.60;99.90;;;;;;5074596;28;20021;-90
2021/06/03 03:40:20;;;;;;;26.05;21.08;;;17.60;99.90;;;;;;5075194;28;20047;-91
2021/06/03 03:42:46;;;;;;;30.30;21.67;;;17.60;99.90;;;;;;5076015;28;20156;-90
2021/06/03 03:45:14;;;;;;;31.77;22.17;;;17.50;99.90;;;;;;5076680;28;20032;-90
2021/06/03 03:47:40;;;;;;;29.10;22.33;;;17.50;99.90;;;;;;5076833;28;20023;-89
2021/06/03 03:50:10;;;;;;;27.92;20.83;;;17.50;99.90;;;;;;5071118;28;20031;-89
2021/06/03 03:52:38;;;;;;;34.17;22.67;;;17.50;99.90;;;;;;5072212;28;20021;-89
2021/06/03 03:55:05;;;;;;;32.92;23.42;;;17.60;99.90;;;;;;5074710;28;20024;-89
2021/06/03 03:57:31;;;;;;;34.15;23.13;;;17.50;99.90;;;;;;5065229;28;20507;-90
2021/06/03 03:59:57;;;;;;;27.48;20.40;;;17.50;99.90;;;;;;5071956;28;20035;-90
2021/06/03 04:02:22;;;;;;;30.30;22.48;;;17.40;99.90;;;;;;5077833;28;20070;-89
2021/06/03 04:04:48;;;;;;;31.80;22.38;;;17.40;99.90;;;;;;5072245;28;20499;-89
2021/06/03 04:07:14;;;;;;;28.55;22.50;;;17.40;99.90;;;;;;5087218;28;20568;-89
2021/06/03 04:09:41;;;;;;;28.08;21.25;;;17.50;99.90;;;;;;5077356;28;20056;-89
2021/06/03 04:12:08;;;;;;;26.33;21.15;;;17.40;99.90;;;;;;5078625;28;20123;-89
2021/06/03 04:14:33;;;;;;;22.63;18.10;;;17.40;99.90;;;;;;5071813;28;20508;-90
2021/06/03 04:16:59;;;;;;;27.27;20.30;;;17.50;99.90;;;;;;5072263;28;20121;-90
2021/06/03 04:19:25;;;;;;;22.45;19.27;;;17.60;99.90;;;;;;5070401;28;20153;-89
2021/06/03 04:21:51;;;;;;;23.05;19.00;;;17.60;99.90;;;;;;5072383;28;20031;-89
2021/06/03 04:24:17;;;;;;;21.67;18.65;;;17.60;99.90;;;;;;5071404;28;20036;-89
2021/06/03 04:26:43;;;;;;;23.25;19.17;;;17.60;99.90;;;;;;5080970;28;20040;-89
2021/06/03 04:29:08;;;;;;;28.40;18.88;;;17.60;99.90;;;;;;5071679;28;20032;-90
2021/06/03 04:31:34;;;;;;;26.27;19.35;;;17.70;99.90;;;;;;5074862;28;20580;-89
2021/06/03 04:34:00;;;;;;;22.70;17.58;;;17.70;99.90;;;;;;5077957;28;20500;-89
2021/06/03 04:36:27;;;;;;;20.23;17.35;;;17.60;99.90;;;;;;5073141;28;20078;-91
2021/06/03 04:38:53;;;;;;;22.02;17.55;;;17.60;99.90;;;;;;5072384;28;20060;-90
2021/06/03 04:41:19;;;;;;;26.67;18.42;;;17.60;99.90;;;;;;5073806;28;20405;-89
2021/06/03 04:43:45;;;;;;;24.10;17.70;;;17.50;99.90;;;;;;5072217;28;20221;-90
2021/06/03 04:46:12;;;;;;;25.20;17.63;;;17.60;99.90;;;;;;5074563;28;20107;-90
2021/06/03 04:48:38;;;;;;;24.45;19.00;;;17.60;99.90;;;;;;5074363;28;20029;-89
2021/06/03 04:51:04;;;;;;;20.77;17.77;;;17.60;99.90;;;;;;5075205;28;20178;-89
2021/06/03 04:53:31;;;;;;;23.58;17.30;;;17.70;99.90;;;;;;5075494;28;20081;-89
2021/06/03 04:55:59;;;;;;;23.55;16.98;;;17.70;99.90;;;;;;5074730;28;20492;-91
2021/06/03 04:58:27;;;;;;;23.80;16.60;;;17.80;99.90;;;;;;5077366;28;20039;-93
2021/06/03 05:00:53;;;;;;;20.15;16.48;;;17.70;99.90;;;;;;5074380;28;20027;-92
2021/06/03 05:03:20;;;;;;;20.50;16.10;;;17.80;99.90;;;;;;5077801;28;20035;-93
2021/06/03 05:05:45;;;;;;;24.77;16.13;;;17.90;99.90;;;;;;5075950;28;20036;-91
2021/06/03 05:08:12;;;;;;;21.30;15.48;;;18.00;99.90;;;;;;5069971;28;20035;-93
2021/06/03 05:10:38;;;;;;;17.73;14.98;;;18.00;99.90;;;;;;5073145;28;20056;-92
2021/06/03 05:13:05;;;;;;;21.17;15.25;;;18.00;99.90;;;;;;5069732;28;20024;-92
2021/06/03 05:15:31;;;;;;;24.35;15.77;;;18.00;99.90;;;;;;5070967;28;20033;-92
2021/06/03 05:17:57;;;;;;;24.05;15.48;;;18.10;99.90;;;;;;5070371;28;20051;-91
2021/06/03 05:20:26;;;;;;;17.98;14.38;;;18.10;99.90;;;;;;5072641;28;20070;-91
2021/06/03 05:22:53;;;;;;;22.98;15.05;;;18.10;99.90;;;;;;5069818;28;20074;-93
2021/06/03 05:25:25;;;;;;;23.13;14.27;;;18.20;99.90;;;;;;5073000;28;20021;-92
2021/06/03 05:27:52;;;;;;;17.88;14.23;;;18.20;99.90;;;;;;5080071;28;20058;-93
2021/06/03 05:30:19;;;;;;;22.10;15.70;;;18.20;99.90;;;;;;5072408;28;20032;-90
2021/06/03 05:32:45;;;;;;;20.75;15.63;;;18.20;99.90;;;;;;5065298;28;20276;-91
2021/06/03 05:35:14;;;;;;;21.27;14.02;;;18.20;99.90;;;;;;5073270;28;20082;-91
2021/06/03 05:37:40;;;;;;;19.17;14.63;;;18.20;99.90;;;;;;5070592;28;20040;-92
2021/06/03 05:40:07;;;;;;;21.20;14.88;;;18.20;99.90;;;;;;5070686;28;20040;-91
2021/06/03 05:42:33;;;;;;;20.02;14.98;;;18.20;99.90;;;;;;5079645;28;20162;-91
2021/06/03 05:44:59;;;;;;;22.83;15.43;;;18.20;99.90;;;;;;5072086;28;20092;-92
2021/06/03 05:47:25;;;;;;;22.52;15.50;;;18.30;99.90;;;;;;5069184;28;20017;-90
2021/06/03 05:49:50;;;;;;;20.23;14.45;;;18.40;99.90;;;;;;5070299;28;20017;-82
2021/06/03 05:52:16;;;;;;;21.33;14.55;;;18.40;99.90;;;;;;5065210;28;20497;-82
2021/06/03 05:54:42;;;;;;;19.92;14.50;;;18.50;99.90;;;;;;5070123;28;20518;-81
2021/06/03 05:57:08;;;;;;;23.60;14.57;;;18.50;99.90;;;;;;5078389;28;20033;-82
2021/06/03 05:59:34;;;;;;;21.58;14.55;;;18.60;99.90;;;;;;5069734;28;20021;-84
2021/06/03 06:02:05;;;;;;;19.00;13.75;;;18.60;99.90;;;;;;5079575;28;20016;-82
2021/06/03 06:06:57;;;;;;;20.65;14.20;;;18.70;99.90;;;;;;5071902;28;20028;-83
2021/06/03 06:09:23;;;;;;;22.55;15.82;;;18.70;99.90;;;;;;5069490;28;20078;-82
2021/06/03 06:11:49;;;;;;;20.08;14.23;;;18.60;99.90;;;;;;5074221;28;20041;-82
2021/06/03 06:14:15;;;;;;;21.77;14.40;;;18.50;99.90;;;;;;5069293;28;20056;-83
2021/06/03 06:16:41;;;;;;;17.73;14.32;;;18.60;99.90;;;;;;5076976;28;20751;-82
2021/06/03 06:19:09;;;;;;;22.33;14.95;;;18.50;99.90;;;;;;5071242;28;20483;-82
2021/06/03 06:21:35;;;;;;;21.00;14.18;;;18.50;99.90;;;;;;5077994;28;20021;-82
2021/06/03 06:24:02;;;;;;;19.52;13.95;;;18.50;99.90;;;;;;5072658;28;20037;-81
2021/06/03 06:26:27;;;;;;;23.52;15.38;;;18.50;99.90;;;;;;5075048;28;20091;-82
2021/06/03 06:28:55;;;;;;;21.30;14.45;;;18.40;99.90;;;;;;5074813;28;20108;-83
2021/06/03 06:31:24;;;;;;;19.83;14.85;;;18.40;99.90;;;;;;5074441;28;20024;-83
2021/06/03 06:33:49;;;;;;;25.60;15.40;;;18.40;99.90;;;;;;5062374;28;20115;-83
2021/06/03 06:36:16;;;;;;;21.42;16.05;;;18.40;99.90;;;;;;5074089;28;20707;-82
2021/06/03 06:38:43;;;;;;;19.73;14.48;;;18.40;99.90;;;;;;5070134;28;20403;-82
2021/06/03 06:41:10;;;;;;;21.77;15.77;;;18.30;99.90;;;;;;5080495;28;20094;-83
2021/06/03 06:43:37;;;;;;;22.10;15.88;;;18.30;99.90;;;;;;5074657;28;20078;-84
2021/06/03 06:46:04;;;;;;;19.65;13.80;;;18.40;99.90;;;;;;5074020;28;20021;-83
2021/06/03 06:48:30;;;;;;;20.08;14.88;;;18.40;99.90;;;;;;5073844;28;20032;-83
2021/06/03 06:50:56;;;;;;;21.05;14.48;;;18.40;99.90;;;;;;5074873;28;20017;-83
2021/06/03 06:53:22;;;;;;;19.05;14.65;;;18.30;99.90;;;;;;5074548;28;20080;-81
2021/06/03 06:55:48;;;;;;;25.08;14.48;;;18.30;99.90;;;;;;5067997;28;20056;-81
2021/06/03 06:58:14;;;;;;;18.90;14.45;;;18.40;99.90;;;;;;5075780;28;20081;-82
2021/06/03 07:00:42;;;;;;;20.63;14.55;;;18.50;99.90;;;;;;5076432;28;20249;-83
2021/06/03 07:03:10;;;;;;;18.92;12.93;;;18.60;99.90;;;;;;5076396;28;20028;-82
2021/06/03 07:05:38;;;;;;;15.52;12.82;;;18.60;99.90;;;;;;5072651;28;20078;-82
2021/06/03 07:08:04;;;;;;;20.23;12.82;;;18.80;99.90;;;;;;5072070;28;20093;-81
2021/06/03 07:10:31;;;;;;;16.70;12.07;;;19.00;99.90;;;;;;5073629;28;20168;-82
2021/06/03 07:12:56;;;;;;;17.95;12.43;;;19.10;99.90;;;;;;5077444;28;20028;-82
2021/06/03 07:15:22;;;;;;;17.98;12.73;;;19.10;99.90;;;;;;5077243;28;20103;-81
2021/06/03 07:17:49;;;;;;;18.40;11.93;;;19.10;99.90;;;;;;5077940;28;20167;-81
2021/06/03 07:20:18;;;;;;;19.38;11.82;;;19.20;99.90;;;;;;5076435;28;20036;-82
2021/06/03 07:22:46;;;;;;;14.20;10.60;;;19.40;99.90;;;;;;5079191;28;20019;-82
2021/06/03 07:25:14;;;;;;;16.83;11.65;;;19.40;99.90;;;;;;5076206;28;20020;-81
2021/06/03 07:27:40;;;;;;;13.35;10.70;;;19.40;99.90;;;;;;5080311;28;20113;-81
2021/06/03 07:30:12;;;;;;;16.67;10.98;;;19.20;99.90;;;;;;5063519;28;20146;-80
2021/06/03 07:32:38;;;;;;;18.35;11.45;;;19.10;99.90;;;;;;5081641;28;20020;-81
2021/06/03 07:35:09;;;;;;;14.05;10.55;;;19.20;99.90;;;;;;5074625;28;20082;-82
2021/06/03 07:37:36;;;;;;;22.88;12.45;;;19.30;99.90;;;;;;5073267;28;20051;-82
2021/06/03 07:40:02;;;;;;;14.65;11.05;;;19.30;99.90;;;;;;5072576;28;20039;-81
2021/06/03 07:42:28;;;;;;;13.65;11.48;;;19.40;99.90;;;;;;5080430;28;20019;-81
2021/06/03 07:44:53;;;;;;;14.23;11.07;;;19.40;99.90;;;;;;5072543;28;20028;-81
2021/06/03 07:47:19;;;;;;;17.02;10.25;;;19.40;99.90;;;;;;5072492;28;20025;-78
2021/06/03 07:49:45;;;;;;;14.40;10.80;;;19.50;99.90;;;;;;5072167;28;20036;-81
2021/06/03 07:52:10;;;;;;;15.18;9.88;;;19.60;99.90;;;;;;5078050;28;20025;-81
2021/06/03 07:54:36;;;;;;;17.00;9.88;;;19.50;99.90;;;;;;5070375;28;20476;-82
2021/06/03 07:57:02;;;;;;;19.50;9.73;;;19.50;99.90;;;;;;5075433;28;20028;-82
2021/06/03 07:59:29;;;;;;;16.05;10.02;;;19.50;99.90;;;;;;5071904;28;20048;-82
2021/06/03 08:01:55;;;;;;;16.15;10.07;;;19.40;99.90;;;;;;5076090;28;20040;-84
2021/06/03 08:04:24;;;;;;;24.60;9.55;;;19.40;99.90;;;;;;5070952;28;20568;-84
2021/06/03 08:06:50;;;;;;;22.63;11.30;;;19.40;99.90;;;;;;5078634;28;20023;-85
2021/06/03 08:09:16;;;;;;;16.90;10.32;;;19.40;99.90;;;;;;5071902;28;20012;-84
2021/06/03 08:11:44;;;;;;;15.75;9.80;;;19.40;99.90;;;;;;5079968;28;20339;-86
2021/06/03 08:14:10;;;;;;;13.52;8.68;;;19.40;99.90;;;;;;5065441;28;20025;-84
2021/06/03 08:16:36;;;;;;;12.20;9.23;;;19.40;99.90;;;;;;5071321;28;20074;-86
2021/06/03 08:19:02;;;;;;;18.60;10.45;;;19.50;99.90;;;;;;5071328;28;20028;-85
2021/06/03 08:21:28;;;;;;;22.42;10.05;;;19.50;99.90;;;;;;5080724;28;20646;-84
2021/06/03 08:23:55;;;;;;;12.27;8.93;;;19.70;99.90;;;;;;5070511;28;20116;-85
2021/06/03 08:26:23;;;;;;;15.52;8.73;;;19.70;99.90;;;;;;5072176;28;20113;-85
2021/06/03 08:28:49;;;;;;;13.73;8.65;;;19.70;99.90;;;;;;5087671;28;20016;-85
2021/06/03 08:31:15;;;;;;;13.95;8.48;;;19.70;99.90;;;;;;5072952;28;20085;-87
2021/06/03 08:33:40;;;;;;;12.95;8.90;;;19.80;99.90;;;;;;5072778;28;20086;-85
2021/06/03 08:36:06;;;;;;;12.10;8.45;;;19.80;99.90;;;;;;5076031;28;20051;-85
2021/06/03 08:38:32;;;;;;;11.65;8.00;;;19.70;99.90;;;;;;5069127;28;20043;-86
2021/06/03 08:40:59;;;;;;;13.43;8.82;;;19.70;99.90;;;;;;5076327;28;20119;-86
2021/06/03 08:43:27;;;;;;;12.25;9.35;;;19.70;99.90;;;;;;5072815;28;20020;-86
2021/06/03 08:45:53;;;;;;;12.60;8.93;;;19.80;99.90;;;;;;5071102;28;20553;-86
2021/06/03 08:48:20;;;;;;;15.45;8.80;;;19.90;99.90;;;;;;5070010;28;20028;-87
2021/06/03 08:50:50;;;;;;;17.20;8.60;;;19.90;99.90;;;;;;5072123;28;20090;-88
2021/06/03 08:53:17;;;;;;;14.30;9.60;;;19.90;99.90;;;;;;5072166;28;20024;-84
2021/06/03 08:58:30;;;;;;;14.30;8.48;;;19.90;99.90;;;;;;5073050;28;20078;-86
2021/06/03 09:00:57;;;;;;;16.23;9.23;;;19.80;99.90;;;;;;5071601;28;20085;-86
2021/06/03 09:03:25;;;;;;;13.18;9.75;;;19.80;99.90;;;;;;5073555;28;20055;-87
2021/06/03 09:05:51;;;;;;;9.25;7.00;;;19.80;99.90;;;;;;5074657;28;20063;-86
2021/06/03 09:08:26;;;;;;;10.05;7.35;;;19.80;99.90;;;;;;5074398;28;20052;-87
2021/06/03 09:10:59;;;;;;;14.48;7.55;;;19.80;99.90;;;;;;5075329;28;20031;-88
2021/06/03 09:13:34;;;;;;;12.25;6.90;;;19.80;99.90;;;;;;5075272;28;20017;-88
2021/06/03 09:16:15;;;;;;;15.70;7.82;;;19.80;99.90;;;;;;5075265;28;20025;-87
2021/06/03 09:18:43;;;;;;;15.57;8.45;;;19.90;99.90;;;;;;5070193;28;20117;-87
2021/06/03 09:21:27;;;;;;;12.90;7.28;;;19.90;99.90;;;;;;5074661;28;20083;-88
2021/06/03 09:24:12;;;;;;;12.70;7.90;;;20.00;99.90;;;;;;5064127;28;20477;-90
2021/06/03 09:26:53;;;;;;;9.10;7.10;;;20.10;99.90;;;;;;5074765;28;20488;-88
2021/06/03 09:29:33;;;;;;;11.85;6.95;;;20.20;99.90;;;;;;5070343;28;20040;-87
2021/06/03 09:32:14;;;;;;;14.35;7.68;;;20.40;99.90;;;;;;5078063;28;20085;-87
2021/06/03 09:34:41;;;;;;;11.95;7.30;;;20.50;99.90;;;;;;5071020;28;20036;-88
2021/06/03 09:37:09;;;;;;;12.93;7.20;;;20.50;99.90;;;;;;5074518;28;20469;-87
2021/06/03 09:39:36;;;;;;;10.27;7.15;;;20.50;99.90;;;;;;5070376;28;20068;-87
2021/06/03 09:42:04;;;;;;;11.52;7.97;;;20.30;99.90;;;;;;5054191;28;20533;-87
2021/06/03 09:44:33;;;;;;;10.93;7.60;;;20.20;99.90;;;;;;5069190;28;20055;-87
2021/06/03 09:47:05;;;;;;;17.63;7.47;;;20.20;99.90;;;;;;5068388;28;20103;-85
2021/06/03 09:49:33;;;;;;;13.75;8.50;;;20.20;99.90;;;;;;5070462;28;20032;-86
2021/06/03 09:52:03;;;;;;;12.38;8.43;;;20.20;99.90;;;;;;5079400;28;20488;-86
2021/06/03 09:54:29;;;;;;;10.40;6.85;;;20.10;99.90;;;;;;5077340;28;20016;-85
2021/06/03 09:56:58;;;;;;;10.40;7.20;;;20.30;99.90;;;;;;5085985;28;20093;-85
2021/06/03 09:59:35;;;;;;;10.90;7.60;;;20.50;99.90;;;;;;5074295;28;20024;-87
2021/06/03 10:02:04;;;;;;;12.63;7.18;;;20.60;99.90;;;;;;5093835;28;20024;-86
2021/06/03 10:04:38;;;;;;;10.65;7.32;;;20.60;99.90;;;;;;5073123;28;20042;-82
2021/06/03 10:07:08;;;;;;;10.43;7.68;;;20.90;99.90;;;;;;5082261;28;20023;-81
2021/06/03 10:09:55;;;;;;;10.77;7.07;;;20.90;99.90;;;;;;5069551;28;20025;-82
2021/06/03 10:12:24;;;;;;;10.57;6.53;;;21.30;99.90;;;;;;5083324;28;20043;-82
2021/06/03 10:15:13;;;;;;;14.23;7.47;;;21.70;99.90;;;;;;5073818;28;20024;-81
2021/06/03 10:18:01;;;;;;;8.98;6.38;;;22.10;99.90;;;;;;5073926;28;20061;-81
2021/06/03 10:20:44;;;;;;;11.90;7.10;;;22.60;99.90;;;;;;5076076;28;20028;-82
2021/06/03 10:23:12;;;;;;;12.13;6.07;;;22.80;99.90;;;;;;5076537;28;20032;-81
2021/06/03 10:25:38;;;;;;;8.15;5.55;;;22.70;99.90;;;;;;5078756;28;20040;-83
2021/06/03 10:28:14;;;;;;;12.20;6.18;;;22.70;99.90;;;;;;5080125;28;20016;-83
2021/06/03 10:30:47;;;;;;;8.40;5.38;;;22.70;99.90;;;;;;5076647;28;20373;-83
2021/06/03 10:33:22;;;;;;;9.63;5.40;;;22.70;99.90;;;;;;5078014;28;20036;-83
2021/06/03 10:35:50;;;;;;;11.38;5.15;;;22.70;99.90;;;;;;5078267;28;20024;-82
2021/06/03 10:38:19;;;;;;;8.88;5.45;;;22.80;99.90;;;;;;5078543;28;20044;-82
2021/06/03 10:40:52;;;;;;;12.98;6.07;;;23.00;99.90;;;;;;5076877;28;20127;-83
2021/06/03 10:43:18;;;;;;;12.27;6.55;;;22.90;99.90;;;;;;5077772;28;20012;-81
2021/06/03 10:45:45;;;;;;;15.75;6.82;;;23.00;99.90;;;;;;5077983;28;20031;-82
2021/06/03 10:48:11;;;;;;;8.00;6.28;;;22.90;99.90;;;;;;5072431;28;20020;-82
2021/06/03 10:50:45;;;;;;;14.98;7.28;;;22.90;99.90;;;;;;5075986;28;20107;-82
2021/06/03 10:53:18;;;;;;;9.17;7.40;;;22.90;99.90;;;;;;5076019;28;20550;-82
2021/06/03 10:55:46;;;;;;;11.07;8.30;;;22.60;99.90;;;;;;5079397;28;20021;-83
2021/06/03 10:58:14;;;;;;;15.15;8.00;;;22.30;99.90;;;;;;5078451;28;20040;-83
2021/06/03 11:00:59;;;;;;;11.25;7.70;;;22.20;99.90;;;;;;5074626;28;20370;-84
2021/06/03 11:03:38;;;;;;;10.77;7.38;;;22.30;99.90;;;;;;5073011;28;20021;-84
2021/06/03 11:06:07;;;;;;;9.20;5.10;;;22.30;99.90;;;;;;5077504;28;20049;-83
2021/06/03 11:08:39;;;;;;;10.98;5.55;;;22.50;99.90;;;;;;5072762;28;20099;-83
2021/06/03 11:11:14;;;;;;;9.13;4.57;;;22.40;99.90;;;;;;5076077;28;20020;-84
2021/06/03 11:13:48;;;;;;;11.52;5.53;;;22.50;99.90;;;;;;5076257;28;20108;-85
2021/06/03 11:16:19;;;;;;;8.10;4.57;;;22.90;99.90;;;;;;5075169;28;20112;-85
2021/06/03 11:18:44;;;;;;;10.90;4.95;;;23.20;99.90;;;;;;5070912;28;20415;-86
2021/06/03 11:24:06;;;;;;;10.80;4.75;;;23.70;99.90;;;;;;5069795;28;20035;-85
2021/06/03 11:26:38;;;;;;;13.30;5.32;;;23.90;99.90;;;;;;5079057;28;20452;-84
2021/06/03 11:29:07;;;;;;;8.55;3.90;;;23.90;99.90;;;;;;5070727;28;20089;-87
2021/06/03 11:31:33;;;;;;;10.90;4.38;;;24.10;99.90;;;;;;5076551;28;20044;-88
2021/06/03 11:34:11;;;;;;;10.13;4.55;;;23.80;99.90;;;;;;5075328;28;20086;-89
2021/06/03 11:36:38;;;;;;;12.85;5.60;;;23.50;99.90;;;;;;5076468;28;20036;-88
2021/06/03 11:39:06;;;;;;;11.90;5.22;;;23.40;99.90;;;;;;5071825;28;20500;-88
2021/06/03 11:41:37;;;;;;;18.30;5.85;;;23.50;99.90;;;;;;5070710;28;20416;-88
2021/06/03 11:44:11;;;;;;;16.20;5.13;;;23.10;99.90;;;;;;5070164;28;20035;-88
2021/06/03 11:46:49;;;;;;;14.63;5.70;;;22.90;99.90;;;;;;5075783;28;20086;-88
2021/06/03 11:49:39;;;;;;;12.65;4.72;;;22.70;99.90;;;;;;5070854;28;20535;-86
2021/06/03 11:52:19;;;;;;;12.60;5.28;;;22.90;99.90;;;;;;5071660;28;20028;-87
2021/06/03 11:55:03;;;;;;;16.35;5.40;;;22.90;99.90;;;;;;5072424;28;20299;-85
2021/06/03 11:57:38;;;;;;;10.23;5.03;;;22.70;99.90;;;;;;5071234;28;20032;-87
2021/06/03 12:00:14;;;;;;;13.75;6.35;;;22.80;99.90;;;;;;5073518;28;20024;-88
2021/06/03 12:02:43;;;;;;;12.63;5.97;;;22.70;99.90;;;;;;5085909;28;20027;-86
2021/06/03 12:05:12;;;;;;;11.60;5.43;;;22.50;99.90;;;;;;5072508;28;20077;-88
2021/06/03 12:07:40;;;;;;;12.70;4.90;;;22.70;99.90;;;;;;5072586;28;20119;-88
2021/06/03 12:10:06;;;;;;;11.55;5.22;;;23.30;99.90;;;;;;5073905;28;20084;-87
2021/06/03 12:12:33;;;;;;;13.43;6.97;;;23.50;99.90;;;;;;5078182;28;20491;-88
2021/06/03 12:14:59;;;;;;;13.23;6.57;;;23.80;99.90;;;;;;5072847;28;20039;-88
2021/06/03 12:17:25;;;;;;;14.55;5.78;;;23.90;99.90;;;;;;5074123;28;20044;-87
2021/06/03 12:19:54;;;;;;;12.93;6.60;;;24.40;99.90;;;;;;5073170;28;20401;-85
2021/06/03 12:22:26;;;;;;;11.48;5.78;;;24.30;99.90;;;;;;5075901;28;20384;-85
2021/06/03 12:24:58;;;;;;;12.18;6.43;;;23.90;99.90;;;;;;5072188;28;20024;-86
2021/06/03 12:27:32;;;;;;;12.05;5.45;;;23.50;99.90;;;;;;5075169;28;20304;-86
2021/06/03 12:30:15;;;;;;;8.85;3.80;;;23.90;99.90;;;;;;5072570;28;20028;-86
2021/06/03 12:33:04;;;;;;;9.18;4.22;;;24.30;99.90;;;;;;5080723;28;20016;-85
2021/06/03 12:35:35;;;;;;;11.43;5.10;;;24.70;99.30;;;;;;5072426;28;20115;-86
2021/06/03 12:38:02;;;;;;;10.60;5.72;;;24.40;98.90;;;;;;5071964;28;20013;-85
2021/06/03 12:40:28;;;;;;;12.65;6.10;;;24.10;99.40;;;;;;5073481;28;20173;-84
2021/06/03 12:43:08;;;;;;;9.85;5.60;;;24.10;99.60;;;;;;5066886;28;20111;-83
2021/06/03 12:45:37;;;;;;;11.88;5.65;;;24.20;99.10;;;;;;5074682;28;20028;-83
2021/06/03 12:48:05;;;;;;;12.02;6.03;;;24.60;99.50;;;;;;5074773;28;20094;-85